Time;durP1;ratioP1;P1;durP2;ratioP2;P2;SDS_P1;SDS_P2;PMS_P1;PMS_P2;Temp;Humidity;BMP_temperature;BMP_pressure;BME280_temperature;BME280_humidity;BME280_pressure;Samples;Min_cycle;Max_cycle;Signal;HPM_P1;HPM_P2
2023/06/05 00:01:38;;;;;;;3.63;3.35;;;;;;;;;;5013279;28;20116;-78
2023/06/05 00:04:04;;;;;;;4.28;3.28;;;;;;;;;;5012054;28;20045;-77
2023/06/05 00:06:31;;;;;;;8.30;3.80;;;;;;;;;;5013263;28;20049;-77
2023/06/05 00:08:57;;;;;;;3.25;3.05;;;;;;;;;;5013446;28;20077;-78
2023/06/05 00:11:23;;;;;;;5.57;3.60;;;;;;;;;;5013618;28;20060;-78
2023/06/05 00:13:50;;;;;;;4.97;3.42;;;;;;;;;;5013251;28;20042;-79
2023/06/05 00:16:16;;;;;;;3.30;3.00;;;;;;;;;;5014350;28;20433;-78
2023/06/05 00:18:45;;;;;;;3.20;2.67;;;;;;;;;;5012648;28;20042;-78
2023/06/05 00:21:15;;;;;;;4.05;3.75;;;;;;;;;;5013357;28;20081;-78
2023/06/05 00:23:41;;;;;;;4.00;3.22;;;;;;;;;;5012939;28;20053;-78
2023/06/05 00:26:07;;;;;;;4.05;3.17;;;;;;;;;;5013177;28;20042;-79
2023/06/05 00:28:33;;;;;;;4.13;3.83;;;;;;;;;;5012876;28;20050;-78
2023/06/05 00:30:59;;;;;;;3.38;3.10;;;;;;;;;;5013252;28;20057;-77
2023/06/05 00:33:26;;;;;;;6.70;3.70;;;;;;;;;;4995451;28;20042;-78
2023/06/05 00:35:52;;;;;;;3.90;3.50;;;;;;;;;;5013076;28;20046;-78
2023/06/05 00:38:18;;;;;;;5.75;3.83;;;;;;;;;;5011816;28;20099;-77
2023/06/05 00:40:44;;;;;;;4.10;3.33;;;;;;;;;;5012731;28;20510;-78
2023/06/05 00:43:11;;;;;;;8.68;4.07;;;;;;;;;;5012808;28;20057;-78
2023/06/05 00:45:37;;;;;;;4.20;3.40;;;;;;;;;;5012778;28;20049;-79
2023/06/05 00:48:03;;;;;;;4.03;3.60;;;;;;;;;;5012778;28;20423;-79
2023/06/05 00:50:32;;;;;;;4.18;3.50;;;;;;;;;;5011287;28;20049;-78
2023/06/05 00:52:58;;;;;;;6.63;3.75;;;;;;;;;;5011428;28;20054;-76
2023/06/05 00:55:25;;;;;;;5.55;4.00;;;;;;;;;;5012758;28;20060;-79
2023/06/05 00:57:51;;;;;;;5.70;3.90;;;;;;;;;;5012524;28;20050;-78
2023/06/05 01:00:18;;;;;;;8.95;6.22;;;;;;;;;;5012767;28;20438;-77
2023/06/05 01:02:45;;;;;;;4.43;2.92;;;;;;;;;;5011272;28;20125;-78
2023/06/05 01:05:10;;;;;;;4.78;3.80;;;;;;;;;;5012535;28;20072;-78
2023/06/05 01:07:40;;;;;;;12.55;3.90;;;;;;;;;;5013001;28;20046;-78
2023/06/05 01:10:10;;;;;;;7.85;3.92;;;;;;;;;;5012810;28;20042;-78
2023/06/05 01:12:39;;;;;;;5.97;4.20;;;;;;;;;;5012676;28;20046;-79
2023/06/05 01:15:05;;;;;;;6.20;4.35;;;;;;;;;;4994548;28;20046;-76
2023/06/05 01:17:33;;;;;;;8.30;4.20;;;;;;;;;;4978453;28;20049;-78
2023/06/05 01:20:02;;;;;;;7.22;4.03;;;;;;;;;;5010968;28;20104;-77
2023/06/05 01:22:30;;;;;;;5.20;4.13;;;;;;;;;;4995069;28;20514;-79
2023/06/05 01:24:57;;;;;;;6.05;3.70;;;;;;;;;;5012286;28;20113;-79
2023/06/05 01:27:34;;;;;;;8.27;3.97;;;;;;;;;;5012089;28;20455;-78
2023/06/05 01:30:02;;;;;;;5.45;3.60;;;;;;;;;;4993924;28;20084;-78
2023/06/05 01:32:38;;;;;;;9.35;4.00;;;;;;;;;;5011871;28;20084;-79
2023/06/05 01:35:04;;;;;;;7.00;4.00;;;;;;;;;;5012258;28;20124;-77
2023/06/05 01:37:36;;;;;;;4.15;3.75;;;;;;;;;;5012067;28;20069;-78
2023/06/05 01:40:04;;;;;;;8.50;4.13;;;;;;;;;;5004036;28;20036;-78
2023/06/05 01:42:30;;;;;;;12.40;4.32;;;;;;;;;;4995643;28;20116;-78
2023/06/05 01:44:56;;;;;;;4.20;3.80;;;;;;;;;;5014871;28;20038;-77
2023/06/05 01:47:22;;;;;;;4.93;4.32;;;;;;;;;;5012789;28;20541;-79
2023/06/05 01:49:48;;;;;;;6.07;3.55;;;;;;;;;;5012092;28;20042;-79
2023/06/05 01:52:14;;;;;;;6.63;4.22;;;;;;;;;;5010574;28;20060;-78
2023/06/05 01:54:42;;;;;;;3.80;3.40;;;;;;;;;;4995115;28;20418;-78
2023/06/05 01:57:09;;;;;;;4.90;3.58;;;;;;;;;;5000643;28;20148;-80
2023/06/05 01:59:35;;;;;;;5.45;3.75;;;;;;;;;;5019846;28;20034;-79
2023/06/05 02:02:03;;;;;;;4.22;3.72;;;;;;;;;;5021916;28;20069;-77
2023/06/05 02:04:29;;;;;;;4.53;3.78;;;;;;;;;;5024456;28;20545;-77
2023/06/05 02:06:55;;;;;;;8.18;3.80;;;;;;;;;;5023561;28;20050;-77
2023/06/05 02:09:21;;;;;;;4.88;3.33;;;;;;;;;;5025829;28;20037;-79
2023/06/05 02:11:47;;;;;;;3.45;3.20;;;;;;;;;;5006578;28;20050;-79
2023/06/05 02:14:15;;;;;;;3.72;3.42;;;;;;;;;;5026532;28;20041;-80
2023/06/05 02:16:43;;;;;;;3.83;3.45;;;;;;;;;;5011769;28;20056;-77
2023/06/05 02:19:10;;;;;;;4.88;3.50;;;;;;;;;;5009897;28;20037;-78
2023/06/05 02:21:56;;;;;;;4.68;3.55;;;;;;;;;;5025974;28;20049;-78
2023/06/05 02:24:22;;;;;;;3.75;3.38;;;;;;;;;;5007931;28;20052;-78
2023/06/05 02:26:48;;;;;;;4.40;3.33;;;;;;;;;;5008401;28;20046;-77
2023/06/05 02:29:14;;;;;;;4.70;3.50;;;;;;;;;;5019753;28;20087;-79
2023/06/05 02:31:40;;;;;;;3.72;3.40;;;;;;;;;;5017579;28;20510;-78
2023/06/05 02:34:07;;;;;;;5.20;3.35;;;;;;;;;;4997936;28;20038;-79
2023/06/05 02:36:35;;;;;;;5.13;3.50;;;;;;;;;;5023257;28;20173;-79
2023/06/05 02:39:02;;;;;;;3.92;3.20;;;;;;;;;;5016698;28;20033;-78
2023/06/05 02:41:28;;;;;;;3.53;3.20;;;;;;;;;;5016862;28;20048;-79
2023/06/05 02:43:54;;;;;;;5.35;3.40;;;;;;;;;;4997801;28;20038;-77
2023/06/05 02:46:27;;;;;;;6.43;3.63;;;;;;;;;;4996399;28;20050;-78
2023/06/05 02:48:53;;;;;;;5.97;2.75;;;;;;;;;;5011107;28;20042;-78
2023/06/05 02:51:19;;;;;;;3.53;3.22;;;;;;;;;;5010833;28;20038;-79
2023/06/05 02:53:46;;;;;;;4.55;3.40;;;;;;;;;;5010736;28;20132;-78
2023/06/05 02:56:15;;;;;;;3.95;3.47;;;;;;;;;;5011244;28;20054;-79
2023/06/05 02:58:43;;;;;;;3.00;2.80;;;;;;;;;;4993822;28;20077;-79
2023/06/05 03:01:10;;;;;;;3.55;3.28;;;;;;;;;;5010399;28;20046;-77
2023/06/05 03:03:41;;;;;;;10.50;3.90;;;;;;;;;;4993557;28;20034;-79
2023/06/05 03:06:08;;;;;;;3.58;3.22;;;;;;;;;;5009767;28;20391;-78
2023/06/05 03:08:40;;;;;;;;;;;;;;;;;;4993608;28;20490;-78
2023/06/05 03:11:10;;;;;;;4.18;3.00;;;;;;;;;;4977175;28;19913;-79
2023/06/05 03:13:36;;;;;;;3.85;3.13;;;;;;;;;;5010537;28;20046;-78
2023/06/05 03:16:03;;;;;;;4.30;3.70;;;;;;;;;;5010325;28;20056;-78
2023/06/05 03:18:33;;;;;;;4.40;3.45;;;;;;;;;;4993686;28;20045;-79
2023/06/05 03:21:00;;;;;;;3.80;3.50;;;;;;;;;;5010009;28;20073;-78
2023/06/05 03:23:27;;;;;;;8.88;3.20;;;;;;;;;;5009740;28;20050;-79
2023/06/05 03:25:55;;;;;;;5.97;3.97;;;;;;;;;;5009866;28;20518;-79
2023/06/05 03:28:22;;;;;;;6.65;3.63;;;;;;;;;;5009983;28;20088;-79
2023/06/05 03:30:48;;;;;;;4.45;3.85;;;;;;;;;;5009869;28;20069;-79
2023/06/05 03:33:20;;;;;;;5.22;3.88;;;;;;;;;;5031122;28;20070;-79
2023/06/05 03:35:48;;;;;;;5.80;4.00;;;;;;;;;;5013633;28;20045;-79
2023/06/05 03:38:15;;;;;;;8.75;4.15;;;;;;;;;;4995205;28;20070;-79
2023/06/05 03:40:41;;;;;;;7.90;4.35;;;;;;;;;;5009455;28;20038;-78
2023/06/05 03:43:11;;;;;;;6.30;4.03;;;;;;;;;;5009600;28;20057;-78
2023/06/05 03:45:39;;;;;;;4.35;3.95;;;;;;;;;;5009448;28;20127;-78
2023/06/05 03:48:06;;;;;;;13.05;4.95;;;;;;;;;;5009215;28;20057;-77
2023/06/05 03:50:38;;;;;;;7.30;6.45;;;;;;;;;;5009796;28;20080;-80
2023/06/05 03:53:04;;;;;;;6.22;4.38;;;;;;;;;;4995736;28;20042;-79
2023/06/05 03:55:40;;;;;;;8.02;4.30;;;;;;;;;;5013671;28;20396;-79
2023/06/05 03:58:10;;;;;;;9.60;4.63;;;;;;;;;;5012835;28;20049;-79
2023/06/05 04:00:36;;;;;;;5.57;3.85;;;;;;;;;;4997691;28;20053;-78
2023/06/05 04:03:02;;;;;;;5.82;4.40;;;;;;;;;;5018320;28;20324;-80
2023/06/05 04:05:28;;;;;;;5.03;3.85;;;;;;;;;;5004777;28;20128;-79
2023/06/05 04:07:55;;;;;;;4.38;4.00;;;;;;;;;;5023114;28;20050;-79
2023/06/05 04:10:21;;;;;;;12.52;4.15;;;;;;;;;;5025456;28;20097;-78
2023/06/05 04:12:47;;;;;;;6.22;4.10;;;;;;;;;;5026389;28;20057;-79
2023/06/05 04:15:14;;;;;;;6.55;3.80;;;;;;;;;;5008341;28;20073;-79
2023/06/05 04:17:41;;;;;;;6.47;4.03;;;;;;;;;;5025145;28;20046;-79
2023/06/05 04:20:14;;;;;;;8.68;3.85;;;;;;;;;;5026046;28;20098;-78
2023/06/05 04:22:45;;;;;;;6.18;4.20;;;;;;;;;;5024428;28;20042;-79
2023/06/05 04:25:12;;;;;;;6.97;4.40;;;;;;;;;;5023806;28;20045;-80
2023/06/05 04:27:38;;;;;;;4.03;3.30;;;;;;;;;;5010841;28;20104;-80
2023/06/05 04:30:08;;;;;;;5.55;3.40;;;;;;;;;;5029635;28;20042;-80
2023/06/05 04:32:37;;;;;;;4.85;3.40;;;;;;;;;;5028059;28;20048;-79
2023/06/05 04:35:03;;;;;;;4.38;3.97;;;;;;;;;;5021118;28;20042;-78
2023/06/05 04:37:29;;;;;;;4.75;3.80;;;;;;;;;;5015690;28;20050;-78
2023/06/05 04:39:57;;;;;;;7.22;3.88;;;;;;;;;;5016909;28;20523;-79
2023/06/05 04:42:23;;;;;;;7.78;3.22;;;;;;;;;;4997707;28;20080;-77
2023/06/05 04:44:56;;;;;;;4.00;3.55;;;;;;;;;;4995073;28;20514;-78
2023/06/05 04:47:23;;;;;;;4.90;3.15;;;;;;;;;;4995472;28;20077;-78
2023/06/05 04:49:52;;;;;;;3.60;3.30;;;;;;;;;;5011716;28;20034;-77
2023/06/05 04:52:21;;;;;;;4.97;3.22;;;;;;;;;;5011469;28;20080;-78
2023/06/05 04:54:48;;;;;;;5.05;3.28;;;;;;;;;;4994670;28;20115;-78
2023/06/05 04:57:16;;;;;;;5.50;3.72;;;;;;;;;;4995138;28;20480;-77
2023/06/05 04:59:43;;;;;;;3.53;3.00;;;;;;;;;;5011956;28;20494;-77
2023/06/05 05:02:11;;;;;;;8.27;3.35;;;;;;;;;;5010707;28;20069;-77
2023/06/05 05:04:37;;;;;;;3.42;3.00;;;;;;;;;;4994356;28;20514;-77
2023/06/05 05:07:05;;;;;;;3.20;3.00;;;;;;;;;;5012051;28;20613;-78
2023/06/05 05:09:32;;;;;;;6.03;3.10;;;;;;;;;;4995364;28;20049;-78
2023/06/05 05:11:59;;;;;;;4.75;3.90;;;;;;;;;;5010776;28;20100;-76
2023/06/05 05:14:29;;;;;;;5.93;4.05;;;;;;;;;;4994681;28;20072;-78
2023/06/05 05:16:56;;;;;;;6.18;4.03;;;;;;;;;;4995000;28;20058;-79
2023/06/05 05:19:22;;;;;;;9.88;3.80;;;;;;;;;;5010885;28;20054;-78
2023/06/05 05:21:49;;;;;;;8.18;4.60;;;;;;;;;;4995293;28;20056;-78
2023/06/05 05:24:16;;;;;;;5.50;3.80;;;;;;;;;;5014403;28;20052;-78
2023/06/05 05:26:42;;;;;;;12.93;4.63;;;;;;;;;;5000197;28;20048;-79
2023/06/05 05:29:08;;;;;;;9.88;4.88;;;;;;;;;;5013432;28;20141;-78
2023/06/05 05:31:34;;;;;;;6.35;3.92;;;;;;;;;;4985007;28;20101;-78
2023/06/05 05:34:01;;;;;;;5.82;4.00;;;;;;;;;;5016555;28;20073;-78
2023/06/05 05:36:27;;;;;;;6.70;4.25;;;;;;;;;;5024617;28;20049;-78
2023/06/05 05:38:54;;;;;;;4.78;3.63;;;;;;;;;;5007912;28;20110;-78
2023/06/05 05:41:20;;;;;;;5.10;3.70;;;;;;;;;;5016138;28;20048;-79
2023/06/05 05:43:47;;;;;;;9.55;3.70;;;;;;;;;;5011781;28;20045;-78
2023/06/05 05:46:13;;;;;;;8.65;3.17;;;;;;;;;;5010378;28;20057;-77
2023/06/05 05:48:40;;;;;;;4.10;3.40;;;;;;;;;;5010147;28;20537;-78
2023/06/05 05:51:06;;;;;;;6.75;3.40;;;;;;;;;;5011370;28;20129;-78
2023/06/05 05:53:32;;;;;;;4.38;2.65;;;;;;;;;;5011357;28;20530;-79
2023/06/05 05:55:58;;;;;;;3.28;2.97;;;;;;;;;;5011283;28;20588;-78
2023/06/05 05:58:24;;;;;;;8.32;3.95;;;;;;;;;;5009991;28;20085;-79
2023/06/05 06:00:51;;;;;;;5.07;3.35;;;;;;;;;;5011430;28;20034;-78
2023/06/05 06:03:17;;;;;;;6.13;4.15;;;;;;;;;;4993886;28;20073;-78
2023/06/05 06:05:44;;;;;;;4.47;3.40;;;;;;;;;;4993782;28;20088;-77
2023/06/05 06:08:11;;;;;;;6.35;3.28;;;;;;;;;;5011284;28;20041;-77
2023/06/05 06:10:37;;;;;;;5.15;3.03;;;;;;;;;;5009625;28;20045;-77
2023/06/05 06:13:04;;;;;;;5.03;3.20;;;;;;;;;;5009326;28;20125;-76
2023/06/05 06:15:31;;;;;;;6.10;3.50;;;;;;;;;;5010609;28;20623;-77
2023/06/05 06:17:57;;;;;;;4.75;3.03;;;;;;;;;;5010696;28;20056;-77
2023/06/05 06:20:23;;;;;;;4.97;3.28;;;;;;;;;;4993240;28;20038;-77
2023/06/05 06:22:49;;;;;;;6.82;3.25;;;;;;;;;;5010529;28;20099;-77
2023/06/05 06:25:16;;;;;;;3.95;2.92;;;;;;;;;;5010532;28;20450;-77
2023/06/05 06:27:43;;;;;;;4.65;3.10;;;;;;;;;;5010901;28;20053;-77
2023/06/05 06:30:10;;;;;;;5.28;3.45;;;;;;;;;;5011344;28;20395;-77
2023/06/05 06:32:36;;;;;;;2.95;2.65;;;;;;;;;;5010196;28;20524;-77
2023/06/05 06:35:03;;;;;;;6.93;3.08;;;;;;;;;;5010802;28;20108;-77
2023/06/05 06:37:32;;;;;;;4.25;3.15;;;;;;;;;;5011443;28;20073;-78
2023/06/05 06:39:58;;;;;;;11.02;3.13;;;;;;;;;;5010869;28;20603;-78
2023/06/05 06:42:26;;;;;;;3.80;2.78;;;;;;;;;;5010707;28;20049;-78
2023/06/05 06:45:00;;;;;;;4.13;2.92;;;;;;;;;;4992901;28;20046;-77
2023/06/05 06:47:26;;;;;;;8.52;3.00;;;;;;;;;;5010668;28;20554;-77
2023/06/05 06:49:53;;;;;;;3.20;2.95;;;;;;;;;;5010348;28;20038;-78
2023/06/05 06:52:20;;;;;;;2.83;2.60;;;;;;;;;;5019617;28;20111;-78
2023/06/05 06:54:46;;;;;;;5.22;2.95;;;;;;;;;;5029783;28;20045;-75
2023/06/05 06:57:12;;;;;;;5.03;2.60;;;;;;;;;;5030302;28;20053;-81
2023/06/05 06:59:41;;;;;;;3.08;2.88;;;;;;;;;;5013287;28;20095;-82
2023/06/05 07:02:09;;;;;;;5.03;2.75;;;;;;;;;;5013633;28;20041;-81
2023/06/05 07:04:35;;;;;;;2.50;2.30;;;;;;;;;;5012855;28;20037;-80
2023/06/05 07:07:01;;;;;;;4.90;2.28;;;;;;;;;;5030292;28;20045;-80
2023/06/05 07:09:28;;;;;;;4.32;2.90;;;;;;;;;;5030217;28;20045;-81
2023/06/05 07:11:54;;;;;;;6.30;2.50;;;;;;;;;;5032051;28;20038;-81
2023/06/05 07:14:21;;;;;;;2.90;2.47;;;;;;;;;;5030903;28;20099;-80
2023/06/05 07:16:48;;;;;;;4.53;2.47;;;;;;;;;;5041707;28;20056;-82
2023/06/05 07:19:15;;;;;;;2.45;2.25;;;;;;;;;;5033681;28;20044;-82
2023/06/05 07:21:41;;;;;;;4.53;2.22;;;;;;;;;;5031244;28;20135;-77
2023/06/05 07:24:08;;;;;;;2.33;2.13;;;;;;;;;;5011561;28;20041;-78
2023/06/05 07:26:34;;;;;;;2.78;2.47;;;;;;;;;;5030052;28;20041;-77
2023/06/05 07:29:00;;;;;;;10.50;2.42;;;;;;;;;;5033256;28;20041;-78
2023/06/05 07:31:26;;;;;;;1.92;1.83;;;;;;;;;;5033657;28;20048;-78
2023/06/05 07:33:52;;;;;;;6.65;2.10;;;;;;;;;;5015383;28;20045;-77
2023/06/05 07:36:19;;;;;;;2.22;2.00;;;;;;;;;;5033413;28;20046;-78
2023/06/05 07:38:46;;;;;;;4.25;2.13;;;;;;;;;;4999640;28;20037;-78
2023/06/05 07:41:12;;;;;;;2.28;2.05;;;;;;;;;;5032937;28;20045;-77
2023/06/05 07:43:41;;;;;;;2.53;2.40;;;;;;;;;;5015399;28;20045;-77
2023/06/05 07:46:08;;;;;;;2.50;2.30;;;;;;;;;;5016244;28;20144;-78
2023/06/05 07:48:37;;;;;;;3.72;2.10;;;;;;;;;;5033955;28;20044;-79
2023/06/05 07:51:03;;;;;;;4.78;2.80;;;;;;;;;;5015615;28;20073;-78
2023/06/05 07:53:32;;;;;;;2.78;2.28;;;;;;;;;;5033628;28;20519;-78
2023/06/05 07:55:58;;;;;;;2.90;2.40;;;;;;;;;;5015415;28;20076;-77
2023/06/05 07:58:27;;;;;;;8.15;2.50;;;;;;;;;;5033162;28;20114;-77
2023/06/05 08:00:53;;;;;;;6.47;2.30;;;;;;;;;;5033360;28;20437;-77
2023/06/05 08:03:19;;;;;;;3.08;2.83;;;;;;;;;;5033083;28;20045;-77
2023/06/05 08:05:46;;;;;;;3.47;2.80;;;;;;;;;;5030253;28;20042;-75
2023/06/05 08:08:13;;;;;;;6.65;2.75;;;;;;;;;;5014918;28;20041;-76
2023/06/05 08:10:40;;;;;;;3.53;2.40;;;;;;;;;;5029582;28;20040;-75
2023/06/05 08:13:07;;;;;;;3.60;2.55;;;;;;;;;;5014252;28;20041;-77
2023/06/05 08:15:33;;;;;;;3.60;2.08;;;;;;;;;;5023440;28;20512;-77
2023/06/05 08:17:59;;;;;;;2.95;1.48;;;;;;;;;;5015095;28;20053;-77
2023/06/05 08:20:25;;;;;;;2.00;1.80;;;;;;;;;;5013185;28;20064;-76
2023/06/05 08:22:51;;;;;;;1.63;1.52;;;;;;;;;;5012961;28;20133;-77
2023/06/05 08:25:17;;;;;;;3.38;1.70;;;;;;;;;;4995135;28;20034;-77
2023/06/05 08:27:43;;;;;;;3.08;1.85;;;;;;;;;;5022834;28;20041;-76
2023/06/05 08:30:09;;;;;;;2.58;1.90;;;;;;;;;;5022173;28;20041;-76
2023/06/05 08:32:36;;;;;;;2.00;1.90;;;;;;;;;;5022127;28;20048;-77
2023/06/05 08:35:02;;;;;;;2.15;2.05;;;;;;;;;;4994749;28;20587;-77
2023/06/05 08:37:29;;;;;;;3.53;1.88;;;;;;;;;;5024469;28;20061;-77
2023/06/05 08:40:00;;;;;;;3.20;1.75;;;;;;;;;;5005792;28;20040;-78
2023/06/05 08:42:28;;;;;;;3.55;1.90;;;;;;;;;;5022300;28;20038;-78
2023/06/05 08:44:54;;;;;;;3.80;2.10;;;;;;;;;;5006057;28;20077;-78
2023/06/05 08:47:21;;;;;;;5.65;2.10;;;;;;;;;;5032955;28;20037;-77
2023/06/05 08:49:47;;;;;;;3.42;1.92;;;;;;;;;;5012734;28;20422;-77
2023/06/05 08:52:14;;;;;;;2.83;2.05;;;;;;;;;;5022802;28;20041;-78
2023/06/05 08:54:40;;;;;;;2.10;1.90;;;;;;;;;;5025102;28;20096;-76
2023/06/05 08:57:07;;;;;;;2.75;2.55;;;;;;;;;;4988426;28;20048;-76
2023/06/05 08:59:33;;;;;;;2.88;1.77;;;;;;;;;;4989680;28;20081;-76
2023/06/05 09:01:59;;;;;;;2.47;2.00;;;;;;;;;;5020659;28;20153;-77
2023/06/05 09:04:29;;;;;;;2.72;2.30;;;;;;;;;;5023814;28;20042;-75
2023/06/05 09:06:56;;;;;;;2.00;1.90;;;;;;;;;;5006630;28;20033;-77
2023/06/05 09:09:22;;;;;;;4.30;2.10;;;;;;;;;;5003186;28;20640;-77
2023/06/05 09:11:48;;;;;;;1.98;1.88;;;;;;;;;;5003874;28;20141;-77
2023/06/05 09:14:14;;;;;;;2.25;2.05;;;;;;;;;;4972037;28;20064;-76
2023/06/05 09:16:42;;;;;;;3.50;1.80;;;;;;;;;;5029500;28;20049;-76
2023/06/05 09:19:08;;;;;;;1.73;1.63;;;;;;;;;;5024670;28;20448;-76
2023/06/05 09:21:35;;;;;;;6.90;1.88;;;;;;;;;;5004947;28;20092;-76
2023/06/05 09:24:14;;;;;;;5.15;1.52;;;;;;;;;;5022018;28;20092;-77
2023/06/05 09:26:58;;;;;;;2.25;1.90;;;;;;;;;;5021364;28;20517;-76
2023/06/05 09:29:27;;;;;;;1.75;1.65;;;;;;;;;;5004502;28;20196;-76
2023/06/05 09:31:54;;;;;;;2.47;2.00;;;;;;;;;;5022220;28;20513;-76
2023/06/05 09:34:20;;;;;;;1.80;1.70;;;;;;;;;;5001433;28;20030;-77
2023/06/05 09:36:47;;;;;;;2.05;1.85;;;;;;;;;;5019202;28;20057;-76
2023/06/05 09:39:16;;;;;;;2.08;1.50;;;;;;;;;;5021669;28;20037;-77
2023/06/05 09:41:44;;;;;;;2.05;1.85;;;;;;;;;;5020395;28;20042;-76
2023/06/05 09:44:10;;;;;;;4.47;2.00;;;;;;;;;;5003732;28;20072;-76
2023/06/05 09:46:50;;;;;;;2.58;2.13;;;;;;;;;;5002314;28;20124;-76
2023/06/05 09:49:16;;;;;;;2.33;1.83;;;;;;;;;;5021402;28;20064;-76
2023/06/05 09:51:46;;;;;;;8.90;1.65;;;;;;;;;;5001669;28;20041;-75
2023/06/05 09:54:12;;;;;;;4.13;1.73;;;;;;;;;;5022306;28;20537;-76
2023/06/05 09:56:40;;;;;;;2.20;2.00;;;;;;;;;;5001390;28;20104;-76
2023/06/05 09:59:05;;;;;;;2.70;1.77;;;;;;;;;;5010553;28;20034;-76
2023/06/05 10:01:33;;;;;;;3.30;1.77;;;;;;;;;;5030506;28;20053;-76
2023/06/05 10:04:00;;;;;;;2.00;1.70;;;;;;;;;;5030503;28;20121;-77
2023/06/05 10:06:27;;;;;;;2.08;1.92;;;;;;;;;;5030096;28;20705;-77
2023/06/05 10:08:55;;;;;;;2.17;1.63;;;;;;;;;;5030496;28;20132;-76
2023/06/05 10:11:22;;;;;;;2.30;1.92;;;;;;;;;;5030326;28;20041;-76
2023/06/05 10:13:51;;;;;;;2.35;1.83;;;;;;;;;;5009385;28;20043;-76
2023/06/05 10:16:20;;;;;;;2.00;1.90;;;;;;;;;;5030369;28;20133;-76
2023/06/05 10:18:46;;;;;;;2.28;2.08;;;;;;;;;;5012816;28;20050;-76
2023/06/05 10:21:14;;;;;;;1.98;1.70;;;;;;;;;;5012548;28;20117;-77
2023/06/05 10:23:42;;;;;;;1.80;1.70;;;;;;;;;;5030558;28;20064;-76
2023/06/05 10:26:10;;;;;;;2.45;2.00;;;;;;;;;;5030045;28;20041;-76
2023/06/05 10:28:40;;;;;;;2.72;1.88;;;;;;;;;;5012919;28;20072;-77
2023/06/05 10:31:06;;;;;;;2.33;1.80;;;;;;;;;;5037839;28;20524;-76
2023/06/05 10:33:54;;;;;;;2.72;1.73;;;;;;;;;;5032395;28;20064;-76
2023/06/05 10:36:27;;;;;;;2.42;1.63;;;;;;;;;;5031788;28;21101;-75
2023/06/05 10:38:53;;;;;;;1.77;1.60;;;;;;;;;;5050018;28;20072;-76
2023/06/05 10:41:19;;;;;;;3.92;1.90;;;;;;;;;;5015530;28;20072;-77
2023/06/05 10:43:49;;;;;;;5.90;2.10;;;;;;;;;;5015739;28;20091;-76
2023/06/05 10:46:27;;;;;;;2.20;2.10;;;;;;;;;;5050002;28;20064;-76
2023/06/05 10:49:07;;;;;;;2.38;2.20;;;;;;;;;;5050259;28;20509;-77
2023/06/05 10:51:37;;;;;;;6.90;2.40;;;;;;;;;;5035384;28;20083;-78
2023/06/05 10:54:05;;;;;;;3.65;2.75;;;;;;;;;;5063027;28;20037;-76
2023/06/05 10:56:50;;;;;;;6.03;2.80;;;;;;;;;;5049835;28;20084;-76
2023/06/05 10:59:17;;;;;;;4.80;2.35;;;;;;;;;;5049629;28;20132;-76
2023/06/05 11:01:43;;;;;;;6.97;2.63;;;;;;;;;;5033414;28;20041;-76
2023/06/05 11:04:09;;;;;;;3.47;3.10;;;;;;;;;;5053834;28;20075;-76
2023/06/05 11:06:37;;;;;;;3.60;2.40;;;;;;;;;;5036285;28;20040;-76
2023/06/05 11:09:13;;;;;;;6.88;2.70;;;;;;;;;;5003518;28;20098;-76
2023/06/05 11:11:58;;;;;;;2.50;2.30;;;;;;;;;;5036288;28;20041;-76
2023/06/05 11:14:25;;;;;;;3.38;1.90;;;;;;;;;;5054003;28;20569;-75
2023/06/05 11:16:51;;;;;;;6.10;2.35;;;;;;;;;;5017665;28;20149;-76
2023/06/05 11:19:23;;;;;;;4.47;2.17;;;;;;;;;;5033281;28;20536;-76
2023/06/05 11:22:08;;;;;;;5.57;2.30;;;;;;;;;;5033679;28;20522;-75
2023/06/05 11:24:37;;;;;;;3.60;2.20;;;;;;;;;;5015937;28;20519;-75
2023/06/05 11:27:04;;;;;;;4.90;2.47;;;;;;;;;;5016063;28;20030;-76
2023/06/05 11:29:30;;;;;;;4.97;2.63;;;;;;;;;;5033394;28;20541;-76
2023/06/05 11:31:56;;;;;;;2.22;2.00;;;;;;;;;;5033596;28;20046;-76
2023/06/05 11:34:22;;;;;;;2.80;1.38;;;;;;;;;;5015592;28;20053;-76
2023/06/05 11:36:49;;;;;;;1.35;1.27;;;;;;;;;;5033488;28;20407;-76
2023/06/05 11:39:15;;;;;;;1.60;1.50;;;;;;;;;;5033547;28;20049;-75
2023/06/05 11:41:45;;;;;;;6.22;1.70;;;;;;;;;;5033407;28;20060;-75
2023/06/05 11:44:11;;;;;;;1.30;1.20;;;;;;;;;;5033033;28;20128;-75
2023/06/05 11:46:40;;;;;;;1.45;1.40;;;;;;;;;;5033259;28;20106;-75
2023/06/05 11:49:10;;;;;;;5.72;1.70;;;;;;;;;;5015588;28;20050;-76
2023/06/05 11:51:36;;;;;;;2.30;2.00;;;;;;;;;;5033216;28;20037;-76
2023/06/05 11:54:04;;;;;;;2.50;1.90;;;;;;;;;;5033364;28;20057;-76
2023/06/05 11:56:31;;;;;;;2.00;1.52;;;;;;;;;;5015112;28;20081;-76
2023/06/05 11:58:57;;;;;;;5.05;2.03;;;;;;;;;;5015643;28;20518;-76
2023/06/05 12:01:25;;;;;;;4.65;2.53;;;;;;;;;;5015228;28;20103;-76
2023/06/05 12:04:04;;;;;;;8.50;2.10;;;;;;;;;;5032960;28;20084;-76
2023/06/05 12:06:30;;;;;;;8.90;2.00;;;;;;;;;;5014735;28;20076;-76
2023/06/05 12:09:09;;;;;;;2.83;2.10;;;;;;;;;;5015246;28;20128;-75
2023/06/05 12:11:35;;;;;;;4.03;2.25;;;;;;;;;;5032803;28;20420;-75
2023/06/05 12:14:01;;;;;;;2.38;2.17;;;;;;;;;;5032021;28;20041;-75
2023/06/05 12:16:37;;;;;;;5.45;1.80;;;;;;;;;;5014495;28;20049;-75
2023/06/05 12:19:13;;;;;;;4.18;2.22;;;;;;;;;;5015356;28;20628;-75
2023/06/05 12:21:39;;;;;;;4.75;3.08;;;;;;;;;;5015114;28;20049;-75
2023/06/05 12:24:06;;;;;;;4.00;2.08;;;;;;;;;;5015150;28;20052;-76
2023/06/05 12:26:48;;;;;;;2.78;2.13;;;;;;;;;;5014735;28;20619;-77
2023/06/05 12:29:16;;;;;;;2.60;2.40;;;;;;;;;;5032690;28;20037;-76
2023/06/05 12:31:42;;;;;;;3.15;1.90;;;;;;;;;;4999115;28;20045;-76
2023/06/05 12:34:08;;;;;;;2.05;1.90;;;;;;;;;;5032668;28;20038;-76
2023/06/05 12:36:41;;;;;;;4.68;2.10;;;;;;;;;;5032065;28;20565;-75
2023/06/05 12:39:07;;;;;;;5.75;1.63;;;;;;;;;;5032850;28;20042;-75
2023/06/05 12:41:33;;;;;;;2.33;1.88;;;;;;;;;;5037735;28;20045;-75
2023/06/05 12:44:00;;;;;;;2.05;1.92;;;;;;;;;;4999952;28;20041;-76
2023/06/05 12:46:28;;;;;;;3.95;2.30;;;;;;;;;;5014524;28;20545;-75
2023/06/05 12:48:54;;;;;;;4.18;2.08;;;;;;;;;;5014878;28;20208;-76
2023/06/05 12:51:20;;;;;;;2.35;1.77;;;;;;;;;;5031995;28;20669;-76
2023/06/05 12:53:46;;;;;;;2.45;2.25;;;;;;;;;;5031973;28;20045;-76
2023/06/05 12:56:12;;;;;;;2.75;2.10;;;;;;;;;;5013884;28;20045;-76
2023/06/05 12:58:38;;;;;;;2.33;1.65;;;;;;;;;;5032297;28;20051;-75
2023/06/05 13:01:05;;;;;;;1.42;1.33;;;;;;;;;;5031862;28;20045;-75
2023/06/05 13:03:33;;;;;;;3.38;1.65;;;;;;;;;;5031751;28;20041;-75
2023/06/05 13:05:59;;;;;;;1.88;1.70;;;;;;;;;;5031674;28;20526;-75
2023/06/05 13:08:25;;;;;;;6.40;1.90;;;;;;;;;;5013900;28;20100;-76
2023/06/05 13:10:51;;;;;;;3.78;2.00;;;;;;;;;;5031950;28;20045;-75
2023/06/05 13:13:19;;;;;;;4.63;2.00;;;;;;;;;;5031444;28;20506;-75
2023/06/05 13:15:45;;;;;;;2.25;2.05;;;;;;;;;;5040461;28;20127;-76
2023/06/05 13:18:11;;;;;;;2.03;1.92;;;;;;;;;;5051548;28;20187;-76
2023/06/05 13:20:37;;;;;;;2.53;2.13;;;;;;;;;;5017314;28;20061;-76
2023/06/05 13:23:05;;;;;;;4.03;2.17;;;;;;;;;;5054628;28;20081;-76
2023/06/05 13:25:32;;;;;;;2.55;2.22;;;;;;;;;;5043005;28;20069;-76
2023/06/05 13:27:58;;;;;;;3.17;1.98;;;;;;;;;;5063482;28;20115;-76
2023/06/05 13:30:24;;;;;;;3.95;1.73;;;;;;;;;;5036592;28;20469;-75
2023/06/05 13:32:53;;;;;;;2.72;1.92;;;;;;;;;;5033674;28;20549;-76
2023/06/05 13:35:19;;;;;;;3.67;2.17;;;;;;;;;;5033197;28;20041;-76
2023/06/05 13:37:48;;;;;;;2.10;2.00;;;;;;;;;;5051190;28;20091;-76
2023/06/05 13:40:15;;;;;;;2.53;2.05;;;;;;;;;;5032605;28;20040;-76
2023/06/05 13:42:41;;;;;;;3.22;1.35;;;;;;;;;;5033242;28;20137;-76
2023/06/05 13:45:08;;;;;;;2.05;1.90;;;;;;;;;;5016700;28;20040;-76
2023/06/05 13:47:34;;;;;;;2.45;2.25;;;;;;;;;;5050373;28;20045;-76
2023/06/05 13:50:00;;;;;;;2.58;2.35;;;;;;;;;;5050753;28;20044;-75
2023/06/05 13:52:27;;;;;;;3.53;2.08;;;;;;;;;;5032803;28;20558;-76
2023/06/05 13:54:53;;;;;;;4.05;2.67;;;;;;;;;;5050889;28;20037;-77
2023/06/05 13:57:18;;;;;;;2.25;2.15;;;;;;;;;;5033482;28;20060;-76
2023/06/05 13:59:44;;;;;;;4.95;2.05;;;;;;;;;;5051624;28;20044;-76
2023/06/05 14:02:12;;;;;;;2.95;2.20;;;;;;;;;;5051455;28;20068;-76
2023/06/05 14:04:40;;;;;;;4.22;2.10;;;;;;;;;;5034381;28;20052;-76
2023/06/05 14:07:06;;;;;;;6.47;2.58;;;;;;;;;;5050918;28;20041;-76
2023/06/05 14:09:32;;;;;;;3.20;2.33;;;;;;;;;;5016243;28;20049;-76
2023/06/05 14:11:58;;;;;;;4.18;2.67;;;;;;;;;;5032600;28;20524;-76
2023/06/05 14:14:24;;;;;;;4.93;2.35;;;;;;;;;;5032458;28;20077;-75
2023/06/05 14:16:51;;;;;;;6.35;2.40;;;;;;;;;;5050247;28;20095;-76
2023/06/05 14:19:17;;;;;;;2.60;1.88;;;;;;;;;;5050420;28;20041;-75
2023/06/05 14:21:43;;;;;;;2.05;1.95;;;;;;;;;;5050375;28;20487;-76
2023/06/05 14:24:10;;;;;;;3.42;1.95;;;;;;;;;;5032704;28;20056;-76
2023/06/05 14:26:36;;;;;;;2.00;1.90;;;;;;;;;;5032656;28;20147;-76
2023/06/05 14:29:02;;;;;;;3.55;2.05;;;;;;;;;;5035324;28;20123;-75
2023/06/05 14:31:28;;;;;;;3.80;2.58;;;;;;;;;;5042378;28;20037;-75
2023/06/05 14:33:54;;;;;;;2.60;1.88;;;;;;;;;;5050682;28;20052;-76
2023/06/05 14:36:20;;;;;;;5.65;2.28;;;;;;;;;;5031920;28;20421;-75
2023/06/05 14:38:47;;;;;;;4.45;2.28;;;;;;;;;;5050070;28;20049;-75
2023/06/05 14:41:12;;;;;;;2.42;2.22;;;;;;;;;;5032234;28;20116;-75
2023/06/05 14:43:39;;;;;;;2.42;2.22;;;;;;;;;;5032057;28;20049;-76
2023/06/05 14:46:04;;;;;;;5.03;2.50;;;;;;;;;;5031869;28;20357;-75